Time;durP1;ratioP1;P1;durP2;ratioP2;P2;SDS_P1;SDS_P2;PMS_P1;PMS_P2;Temp;Humidity;BMP_temperature;BMP_pressure;BME280_temperature;BME280_humidity;BME280_pressure;Samples;Min_cycle;Max_cycle;Signal;HPM_P1;HPM_P2
2022/11/30 00:06:55;;;;;;;0.75;0.75;;;;;;;22.62;35.08;102451.69;21084092;28;20065;-66
2022/11/30 00:16:56;;;;;;;1.48;0.93;;;;;;;22.64;34.92;102446.69;21085610;28;20097;-66
2022/11/30 00:26:58;;;;;;;0.77;0.75;;;;;;;22.67;35.20;102446.16;21094192;28;20085;-66
2022/11/30 00:36:59;;;;;;;1.15;0.82;;;;;;;22.75;35.01;102475.59;21121549;28;20475;-66
2022/11/30 00:47:03;;;;;;;1.00;0.90;;;;;;;22.72;34.88;102467.72;21078846;28;20152;-65
2022/11/30 00:57:05;;;;;;;1.15;0.90;;;;;;;22.64;34.76;102446.69;21078407;28;20040;-65
2022/11/30 01:07:06;;;;;;;1.30;0.80;;;;;;;22.58;34.95;102394.69;21076810;28;20043;-66
2022/11/30 01:17:07;;;;;;;1.10;1.00;;;;;;;22.60;35.12;102423.19;21069703;28;20452;-65
2022/11/30 01:27:09;;;;;;;0.80;0.77;;;;;;;22.59;34.98;102404.78;21076734;28;20052;-65
2022/11/30 01:37:10;;;;;;;1.30;1.00;;;;;;;22.58;35.06;102397.50;21076310;28;20044;-65
2022/11/30 01:47:12;;;;;;;1.08;0.98;;;;;;;22.56;35.04;102394.13;21071584;28;20063;-66
2022/11/30 01:57:33;;;;;;;1.50;1.30;;;;;;;22.52;35.34;102412.47;21070089;28;20093;-64
2022/11/30 02:07:34;;;;;;;1.05;0.95;;;;;;;22.57;35.29;102399.44;21067400;28;20556;-64
2022/11/30 02:17:57;;;;;;;4.53;1.17;;;;;;;22.55;35.64;102389.66;21062404;28;20040;-64
2022/11/30 02:28:13;;;;;;;1.25;1.10;;;;;;;22.53;35.55;102373.16;21086916;28;20089;-65
2022/11/30 02:38:18;;;;;;;1.13;1.05;;;;;;;22.55;35.55;102361.75;21083447;28;20028;-64
2022/11/30 02:48:29;;;;;;;1.45;1.30;;;;;;;22.42;35.50;102337.03;21068840;28;20032;-65
2022/11/30 02:58:30;;;;;;;1.65;1.20;;;;;;;22.53;35.62;102361.16;21081619;28;20118;-65
2022/11/30 03:08:32;;;;;;;1.52;0.93;;;;;;;22.51;35.69;102371.75;21074668;28;20070;-62
2022/11/30 03:18:33;;;;;;;1.25;1.02;;;;;;;22.53;35.72;102369.53;21082865;28;20623;-63
2022/11/30 03:28:36;;;;;;;1.13;0.95;;;;;;;22.56;36.04;102380.19;21080731;28;20032;-65
2022/11/30 03:38:37;;;;;;;3.53;1.10;;;;;;;22.58;35.90;102386.31;21081565;28;20044;-64
2022/11/30 03:48:45;;;;;;;1.33;1.10;;;;;;;22.57;35.69;102379.06;21050458;28;20055;-64
2022/11/30 03:58:46;;;;;;;2.63;1.10;;;;;;;22.55;35.33;102364.53;21066495;28;20039;-63
2022/11/30 04:08:48;;;;;;;2.63;1.08;;;;;;;22.53;35.50;102358.38;21109978;28;20437;-64
2022/11/30 04:18:59;;;;;;;3.83;1.40;;;;;;;22.30;35.68;102306.44;21075536;28;20044;-62
2022/11/30 04:29:00;;;;;;;2.78;1.45;;;;;;;22.47;35.99;102296.09;21073417;28;20036;-63
2022/11/30 04:39:01;;;;;;;3.50;1.23;;;;;;;22.46;35.90;102307.50;21054554;28;20048;-63
2022/11/30 04:49:03;;;;;;;2.00;1.77;;;;;;;22.44;35.93;102310.53;21073943;28;20097;-63
2022/11/30 04:59:04;;;;;;;2.95;1.00;;;;;;;22.43;35.92;102271.75;21061430;28;20052;-64
2022/11/30 05:09:05;;;;;;;3.67;1.58;;;;;;;22.43;36.20;102272.59;21074137;28;20040;-63
2022/11/30 05:19:07;;;;;;;2.42;1.40;;;;;;;22.34;35.94;102257.41;21053297;28;20055;-64
2022/11/30 05:29:08;;;;;;;1.27;1.10;;;;;;;22.37;37.01;102239.34;21061313;28;20102;-63
2022/11/30 05:39:09;;;;;;;4.40;1.60;;;;;;;22.45;37.48;102219.34;21068761;28;20040;-62
2022/11/30 05:49:13;;;;;;;2.25;1.35;;;;;;;22.43;37.39;102194.50;21062201;28;20044;-62
2022/11/30 05:59:17;;;;;;;4.93;1.30;;;;;;;22.45;37.26;102160.75;21071067;28;20045;-63
2022/11/30 06:09:19;;;;;;;1.20;1.00;;;;;;;22.48;37.00;102143.50;21015352;28;20036;-62
2022/11/30 06:19:20;;;;;;;1.73;1.30;;;;;;;22.50;36.73;102122.63;21070806;28;20062;-62
2022/11/30 06:29:21;;;;;;;2.13;1.30;;;;;;;22.54;36.33;102100.59;21088974;28;20085;-62
2022/11/30 06:39:22;;;;;;;1.92;1.23;;;;;;;22.56;36.58;102116.00;21082290;28;20052;-62
2022/11/30 06:49:24;;;;;;;2.53;0.98;;;;;;;22.59;36.42;102086.72;21087754;28;20085;-62
2022/11/30 06:59:25;;;;;;;1.52;1.10;;;;;;;22.55;36.56;102080.00;21085172;28;20432;-62
2022/11/30 07:09:26;;;;;;;1.73;1.10;;;;;;;22.63;36.11;102087.03;21071954;28;20036;-63
2022/11/30 07:19:27;;;;;;;1.98;1.20;;;;;;;22.62;36.47;102071.41;21071220;28;20106;-63
2022/11/30 07:29:31;;;;;;;1.42;1.10;;;;;;;22.64;36.09;102056.09;21078633;28;20149;-63
2022/11/30 07:39:32;;;;;;;1.92;1.02;;;;;;;22.64;35.96;102072.00;21078579;28;20051;-63
2022/11/30 07:49:38;;;;;;;1.30;1.10;;;;;;;22.61;35.89;102064.97;21082522;28;20070;-62
2022/11/30 07:59:42;;;;;;;1.55;1.10;;;;;;;22.65;36.24;102041.03;21081455;28;20164;-62
2022/11/30 08:09:44;;;;;;;1.85;1.33;;;;;;;22.65;36.05;101988.00;21081368;28;20105;-62
2022/11/30 08:19:45;;;;;;;1.77;1.25;;;;;;;22.64;36.20;101961.22;21079569;28;20105;-62
2022/11/30 08:29:46;;;;;;;1.00;0.82;;;;;;;22.62;36.15;101976.53;21079277;28;20036;-62
2022/11/30 08:39:47;;;;;;;1.80;0.95;;;;;;;22.59;36.19;101980.72;21078407;28;20073;-62
2022/11/30 08:49:49;;;;;;;2.45;1.02;;;;;;;22.55;35.85;101940.53;21067210;28;20044;-63
2022/11/30 08:59:53;;;;;;;1.25;1.10;;;;;;;22.51;36.01;101922.63;21071739;28;20036;-63
2022/11/30 09:09:54;;;;;;;1.20;1.10;;;;;;;22.47;36.17;101941.00;21073685;28;20043;-62
2022/11/30 09:19:55;;;;;;;0.90;0.90;;;;;;;22.45;35.99;101929.25;21072120;28;20040;-63
2022/11/30 09:29:57;;;;;;;1.52;1.10;;;;;;;22.44;36.07;101950.75;21077686;28;20051;-62
2022/11/30 09:39:58;;;;;;;0.93;0.90;;;;;;;22.44;36.19;101906.13;21085403;28;20376;-62
2022/11/30 09:50:21;;;;;;;1.63;1.02;;;;;;;22.41;36.03;101889.09;21087945;28;20036;-62
2022/11/30 10:00:24;;;;;;;0.70;0.70;;;;;;;22.40;36.29;101876.25;21086934;28;20048;-63
2022/11/30 10:10:40;;;;;;;1.20;1.10;;;;;;;22.38;35.98;101851.44;21090312;28;20044;-63
2022/11/30 10:20:49;;;;;;;1.15;1.05;;;;;;;22.36;35.96;101830.47;21089714;28;20120;-63
2022/11/30 10:30:53;;;;;;;1.00;0.90;;;;;;;22.32;35.89;101821.84;21090190;28;20056;-63
2022/11/30 10:41:02;;;;;;;1.45;1.02;;;;;;;22.34;35.94;101794.50;21088359;28;20044;-63
2022/11/30 10:51:05;;;;;;;1.38;0.80;;;;;;;22.29;36.23;101775.81;21085141;28;20066;-62
2022/11/30 11:01:09;;;;;;;0.75;0.75;;;;;;;22.29;36.36;101775.81;21078897;28;20052;-64
2022/11/30 11:11:38;;;;;;;1.52;1.30;;;;;;;22.15;36.13;101738.38;21082831;28;20040;-62
2022/11/30 11:21:47;;;;;;;1.00;0.90;;;;;;;22.31;36.04;101748.50;21077179;28;20101;-62
2022/11/30 11:31:49;;;;;;;2.05;1.08;;;;;;;22.25;35.75;101713.31;21073431;28;20044;-62
2022/11/30 11:41:51;;;;;;;3.85;1.17;;;;;;;22.31;35.89;101689.94;21082322;28;20048;-62
2022/11/30 11:52:22;;;;;;;1.25;1.05;;;;;;;22.31;35.86;101684.38;21081895;28;20032;-66
2022/11/30 12:02:46;;;;;;;0.73;0.70;;;;;;;22.37;36.09;101664.88;21057987;28;20495;-62
2022/11/30 12:12:47;;;;;;;1.88;1.10;;;;;;;22.43;36.05;101630.31;21070251;28;20040;-62
2022/11/30 12:23:20;;;;;;;1.45;1.08;;;;;;;22.42;35.83;101634.22;21079299;28;20070;-62
2022/11/30 12:33:47;;;;;;;1.52;1.00;;;;;;;22.44;35.68;101612.44;21054336;28;20043;-63
2022/11/30 12:44:29;;;;;;;2.60;1.00;;;;;;;22.43;35.80;101594.06;21068955;28;20032;-62
2022/11/30 12:54:52;;;;;;;0.80;0.80;;;;;;;22.46;35.99;101574.00;21053818;28;20097;-63
2022/11/30 13:05:00;;;;;;;3.33;0.85;;;;;;;22.50;35.72;101542.47;21067099;28;20037;-63
2022/11/30 13:15:09;;;;;;;1.90;1.10;;;;;;;22.47;36.05;101511.50;21059143;28;20044;-63
2022/11/30 13:25:30;;;;;;;3.75;1.38;;;;;;;22.49;35.90;101484.16;21072033;28;20426;-63
2022/11/30 13:35:40;;;;;;;3.20;1.23;;;;;;;22.53;36.18;101454.59;21065531;28;20075;-63
2022/11/30 13:45:42;;;;;;;4.57;1.52;;;;;;;22.55;36.18;101435.66;21037538;28;20052;-63
2022/11/30 13:56:18;;;;;;;3.58;1.70;;;;;;;22.48;36.15;101443.47;21077135;28;20040;-63
2022/11/30 14:06:38;;;;;;;2.55;1.60;;;;;;;22.52;36.20;101423.09;20997037;28;20032;-63
2022/11/30 14:16:41;;;;;;;4.22;2.00;;;;;;;22.54;36.07;101403.28;21079677;28;20048;-64
2022/11/30 14:26:49;;;;;;;4.43;1.52;;;;;;;22.54;35.67;101394.91;21090179;28;20040;-63
2022/11/30 14:36:55;;;;;;;3.28;1.63;;;;;;;22.53;36.24;101366.19;21088651;28;20043;-63
2022/11/30 14:46:56;;;;;;;1.90;1.48;;;;;;;22.54;35.88;101339.13;21088135;28;20433;-63
2022/11/30 14:57:18;;;;;;;2.85;1.45;;;;;;;22.51;36.21;101309.03;21087453;28;20109;-63
2022/11/30 15:07:23;;;;;;;4.72;1.40;;;;;;;22.52;35.88;101260.50;21080845;28;20040;-63
2022/11/30 15:17:25;;;;;;;1.52;1.38;;;;;;;22.50;36.34;101224.53;21075498;28;20048;-63
2022/11/30 15:27:29;;;;;;;3.80;1.88;;;;;;;22.49;35.96;101219.22;21000367;28;20036;-64
2022/11/30 15:37:34;;;;;;;2.33;1.60;;;;;;;22.47;36.30;101172.13;21000308;28;20041;-63
2022/11/30 15:47:37;;;;;;;3.00;1.60;;;;;;;22.44;36.08;101124.44;20999169;28;20392;-63
2022/11/30 15:57:59;;;;;;;3.67;1.70;;;;;;;22.38;36.46;101078.22;20997529;28;20037;-64
2022/11/30 16:08:02;;;;;;;1.95;1.50;;;;;;;22.36;36.58;101033.03;20997605;28;20074;-64
2022/11/30 16:18:21;;;;;;;1.67;1.20;;;;;;;22.36;36.59;100978.13;20995905;28;20110;-62
2022/11/30 16:28:22;;;;;;;3.00;1.63;;;;;;;22.39;36.63;100935.72;20996995;28;20041;-63
2022/11/30 16:38:27;;;;;;;2.05;1.60;;;;;;;22.27;36.40;100880.34;20996097;28;20333;-63
2022/11/30 16:48:29;;;;;;;2.28;1.42;;;;;;;22.37;36.49;100850.72;20994917;28;20388;-63
2022/11/30 16:58:30;;;;;;;1.35;1.25;;;;;;;22.35;36.59;100813.91;20993933;28;20040;-63
2022/11/30 17:08:32;;;;;;;2.75;1.30;;;;;;;22.34;36.63;100790.78;20994214;28;20028;-62
2022/11/30 17:18:33;;;;;;;2.08;1.15;;;;;;;22.35;36.59;100774.88;20993370;28;20045;-62
2022/11/30 17:28:37;;;;;;;1.63;1.20;;;;;;;22.37;36.86;100776.28;20993183;28;20422;-64
2022/11/30 17:38:39;;;;;;;1.33;1.20;;;;;;;22.27;36.67;100746.53;20992650;28;20052;-64
2022/11/30 17:48:42;;;;;;;1.33;1.05;;;;;;;22.44;36.97;100745.25;20993730;28;20521;-62
2022/11/30 17:58:52;;;;;;;1.45;1.00;;;;;;;22.43;37.05;100702.59;21007547;28;20041;-63
2022/11/30 18:08:55;;;;;;;1.27;0.80;;;;;;;22.47;37.17;100702.84;21005974;28;20454;-61
2022/11/30 18:18:58;;;;;;;1.02;0.70;;;;;;;22.51;37.10;100673.22;21006484;28;20040;-62
2022/11/30 18:29:02;;;;;;;1.67;0.90;;;;;;;22.45;37.48;100652.09;21005287;28;20105;-62
2022/11/30 18:39:04;;;;;;;1.02;0.82;;;;;;;22.54;37.08;100634.44;21004798;28;20055;-63
2022/11/30 18:49:05;;;;;;;1.13;0.75;;;;;;;22.55;37.12;100629.69;21004194;28;20395;-63
2022/11/30 18:59:11;;;;;;;1.35;0.75;;;;;;;22.56;37.17;100604.28;21003385;28;20387;-63
2022/11/30 19:09:18;;;;;;;1.00;0.77;;;;;;;22.58;37.47;100578.84;21001471;28;20045;-63
2022/11/30 19:19:20;;;;;;;0.95;0.75;;;;;;;22.57;37.46;100571.63;21001864;28;20110;-63
2022/11/30 19:29:22;;;;;;;0.85;0.50;;;;;;;22.62;37.47;100562.38;21000473;28;20037;-63
2022/11/30 19:39:23;;;;;;;0.65;0.65;;;;;;;22.60;37.41;100545.13;20997754;28;20102;-62
2022/11/30 19:49:30;;;;;;;0.93;0.60;;;;;;;22.58;37.63;100514.72;20999732;28;20129;-64
2022/11/30 19:59:40;;;;;;;0.73;0.50;;;;;;;22.54;37.87;100510.88;20998371;28;20040;-64
2022/11/30 20:09:45;;;;;;;0.70;0.57;;;;;;;22.56;38.04;100497.47;20997567;28;20040;-63
2022/11/30 20:19:51;;;;;;;0.68;0.50;;;;;;;22.53;38.39;100503.66;20995635;28;20552;-63
2022/11/30 20:29:54;;;;;;;1.35;0.70;;;;;;;22.46;38.51;100500.44;20995916;28;20040;-63
2022/11/30 20:39:55;;;;;;;0.88;0.70;;;;;;;22.45;38.58;100524.69;20994943;28;20041;-63
2022/11/30 20:50:03;;;;;;;1.23;0.50;;;;;;;22.47;38.75;100521.59;20994732;28;20029;-63
2022/11/30 21:00:05;;;;;;;0.40;0.40;;;;;;;22.44;39.21;100539.75;20994055;28;20041;-62
2022/11/30 21:10:07;;;;;;;0.47;0.45;;;;;;;22.42;39.20;100564.31;20994387;28;20029;-62
2022/11/30 21:20:09;;;;;;;1.23;0.60;;;;;;;22.41;39.09;100575.78;20992795;28;20446;-63
2022/11/30 21:30:19;;;;;;;0.70;0.70;;;;;;;22.40;39.07;100596.41;20993248;28;20078;-63
2022/11/30 21:40:21;;;;;;;0.68;0.60;;;;;;;22.38;39.17;100601.47;20992639;28;20043;-63
2022/11/30 21:50:23;;;;;;;0.52;0.50;;;;;;;22.36;39.11;100624.06;20992386;28;20047;-64
2022/11/30 22:00:24;;;;;;;0.80;0.63;;;;;;;22.36;38.83;100690.13;20992293;28;20146;-63
2022/11/30 22:10:28;;;;;;;0.52;0.52;;;;;;;22.37;38.70;100733.63;20991774;28;20549;-64
2022/11/30 22:20:32;;;;;;;0.75;0.47;;;;;;;22.41;38.38;100755.03;20990409;28;20051;-64
2022/11/30 22:30:36;;;;;;;1.08;0.70;;;;;;;22.38;38.43;100768.72;20990906;28;20048;-64
2022/11/30 22:40:40;;;;;;;0.55;0.40;;;;;;;22.39;38.20;100790.72;20998898;28;20036;-64
2022/11/30 22:50:41;;;;;;;0.60;0.50;;;;;;;22.39;38.48;100801.06;21003385;28;20036;-64
2022/11/30 23:00:43;;;;;;;1.50;0.60;;;;;;;22.39;38.22;100820.56;21031488;28;20572;-64
2022/11/30 23:10:44;;;;;;;1.67;0.63;;;;;;;22.38;38.19;100849.59;21070380;28;20040;-64
2022/11/30 23:20:50;;;;;;;1.02;0.60;;;;;;;22.27;38.53;100857.22;21076258;28;20052;-63
2022/11/30 23:30:52;;;;;;;1.92;1.27;;;;;;;22.37;38.26;100900.91;21073116;28;20048;-64
2022/11/30 23:40:56;;;;;;;1.10;0.60;;;;;;;22.37;38.63;100928.78;21074141;28;20036;-64
2022/11/30 23:50:58;;;;;;;0.88;0.60;;;;;;;22.39;38.35;100944.06;21086412;28;20475;-63
